Rankings de siempre
Mejores tiempos personales válidos de atleta a través de todos los eventos y temporadas. Cada atleta aparece una vez por división.
Busca por nombre y abre la página donde está clasificado este récord de división.
32,082 atletas clasificados
Los finishers de HYROX ELITE 15 se rastrean por separado — ver la clasificación Elite.
| Pos. | Pos. AG | Atleta | Nacionalidad | Categoría de edad | TiempoMejor tiempo | Diferencia |
|---|---|---|---|---|---|---|
| 23276 | #5276 | 광일 김KOR · M 35-39 · AG #5276 | KOR | M 35-39 | 1:34:48 | +41:21 |
| 23277 | #7388 | João MoraesBRA · M 30-34 · AG #7388 | BRA | M 30-34 | 1:34:48 | +41:21 |
| 23278 | #5571 | Felix TannhäuserGER · M 25-29 · AG #5571 | GER | M 25-29 | 1:34:48 | +41:21 |
| 23279 | #2757 | Brad WebbGBR · M 40-44 · AG #2757 | GBR | M 40-44 | 1:34:48 | +41:21 |
| 23280 | #7390 | Pierrick BenoitFRA · M 30-34 · AG #7390 | FRA | M 30-34 | 1:34:48 | +41:21 |
| 23281 | #7387 | Amaury SHINGLETONFRA · M 30-34 · AG #7387 | FRA | M 30-34 | 1:34:48 | +41:21 |
| 23282 | #5572 | Karl HareCAN · M 25-29 · AG #5572 | CAN | M 25-29 | 1:34:49 | +41:22 |
| 23283 | #2759 | Greg WallaceNZL · M 40-44 · AG #2759 | NZL | M 40-44 | 1:34:49 | +41:22 |
| 23284 | #5573 | Jonas De GeyterBEL · M 25-29 · AG #5573 | BEL | M 25-29 | 1:34:49 | +41:22 |
| 23285 | #5278 | 炜 黄CHN · M 35-39 · AG #5278 | CHN | M 35-39 | 1:34:49 | +41:22 |
| 23286 | #2758 | Carlos Alberto Ruiz NuñezESP · M 40-44 · AG #2758 | ESP | M 40-44 | 1:34:49 | +41:22 |
| 23287 | #2760 | José Luis Trujillo LongoESP · M 40-44 · AG #2760 | ESP | M 40-44 | 1:34:49 | +41:22 |
| 23288 | #2229 | Jason TemelUSA · M 16-24 · AG #2229 | USA | M 16-24 | 1:34:49 | +41:22 |
| 23289 | #5277 | Abd Hanif Abd HamedMAS · M 35-39 · AG #5277 | MAS | M 35-39 | 1:34:49 | +41:22 |
| 23290 | #7391 | Battuvshin BatjargalMGL · M 30-34 · AG #7391 | MGL | M 30-34 | 1:34:50 | +41:23 |
| 23291 | #7392 | Jack RooseGBR · M 30-34 · AG #7392 | GBR | M 30-34 | 1:34:50 | +41:23 |
| 23292 | #5279 | Trent Charlton-MaughanAUS · M 35-39 · AG #5279 | AUS | M 35-39 | 1:34:50 | +41:23 |
| 23293 | #7393 | Josselin DumontFRA · M 30-34 · AG #7393 | FRA | M 30-34 | 1:34:50 | +41:23 |
| 23294 | #5574 | Robin PerlumiereFRA · M 25-29 · AG #5574 | FRA | M 25-29 | 1:34:50 | +41:23 |
| 23295 | #5280 | Steve NesrallahCAN · M 35-39 · AG #5280 | CAN | M 35-39 | 1:34:50 | +41:23 |
| 23296 | #5575 | Victor FombangGBR · M 25-29 · AG #5575 | GBR | M 25-29 | 1:34:50 | +41:23 |
| 23297 | #2761 | Nadir ChekrounMAR · M 40-44 · AG #2761 | MAR | M 40-44 | 1:34:50 | +41:23 |
| 23298 | #223 | Christian FabaronFRA · M 55-59 · AG #223 | FRA | M 55-59 | 1:34:50 | +41:23 |
| 23299 | #2230 | Jo Ravn UllmannNOR · M 16-24 · AG #2230 | NOR | M 16-24 | 1:34:50 | +41:23 |
| 23300 | #7395 | Christian NelsonUSA · M 30-34 · AG #7395 | USA | M 30-34 | 1:34:51 | +41:24 |
Página 932 de 1,284